Share

Neosho, MO

2:57 AM CDT on April 24, 2014 (GMT -0500)
Rolling Meadows (KMONEOSH2) Elev 0 ft | 36.87 °N, 94.41 °W | Change Station

Current weather conditions updated 39 days ago

Mostly Cloudy
Mostly Cloudy
63 °F
Feels Like 63 °F
N
17
Wind Variable Wind from SSE
Gusts 24 mph
Sunrise 6:31 AM
Sunset 8:00 PM
Moon Waning Crescent

Today is forecast to be Much Cooler than yesterday.

Pressure 29.78 in
Visibility 10.0 miles
Clouds Clear
Dew Point 50 °F
Humidity 66%
Rainfall 0.00 in
Snow Depth Not available.
UV 0 out of 16
Pollen 10.80 out of 12
Air Quality Not available.
Flu Activity Sporadic
METAR KHFJ 240735Z AUTO 15011G18KT 10SM CLR 16/07 A2978 RMK AO2

More Conditions Fewer Conditions

Pressure 29.78 in
Visibility 10.0 miles
Clouds Clear
Dew Point 50 °F
Humidity 66%
Rainfall 0.00 in
Snow Depth Not available.
UV 0 out of 16
Pollen 10.80 out of 12
Air Quality Not available.
Flu Activity Sporadic
METAR KHFJ 240735Z AUTO 15011G18KT 10SM CLR 16/07 A2978 RMK AO2

More Conditions Fewer Conditions

10-Day Weather Forecast

Almanac

Astronomy

Apr. 24, 2014 Rise Set
Actual Time 6:31 AM CDT 8:00 PM CDT
Civil Twilight 6:04 AM CDT 8:27 PM CDT
Nautical Twilight 5:31 AM CDT 9:00 PM CDT
Astronomical Twilight 4:57 AM CDT 9:35 PM CDT
Moon 3:35 AM CDT 3:23 PM CDT
Length of Visible Light 14h 23m
Length of Day
13h 28m
Tomorrow will be 2m 7s longer.
Waning Crescent, 28% of the Moon is Illuminated
Today
Waning Crescent
Apr 29
New
May 6
First Quarter
May 14
Full
May 21
Last Quarter

Today's Extremes

State Highs State Lows

Community

  • Stacked
    Stacked
  • clouds approaching Red Sox Nation
    clouds approaching Red Sox Nation
  • Balance
    Balance
  • Nestled In
    Nestled In
  • Stunning Sunrise
    Stunning Sunrise

WunderPhotos

Upload Photos

1,704,571 photos uploaded!

WunderBlogs® & News

Nearby

Snow Depth

Station Depth Elevation
No new snow has been reported.

Coastal Water Temperatures

Place Temperature
No Stations Reporting

Earthquake Activity

City Distance Mag. Time & Date
No recent earthquake activity has been reported nearby.
Minimum magnitude displayed is 2.5.

Nearby Weather Stations

Station Location Temp. Dew Point Humidity Wind Precip. Elev Updated Type
Mohaska, Joplin, MO 67.4 °F 49 °F 52% ESE  at  17.0 mph 0.00 in / hr 1010 ft 2:52 AM CDT Normal
Farm Road 2100, Wheaton, MO 62.1 °F 47 °F 57% SE  at  12.0 mph 0.00 in / hr 1335 ft 2:57 AM CDT Rapid Fire
the Wood, Reeds, MO 64.9 °F 48 °F 55% South  at  4.0 mph 0.00 in / hr 1086 ft 2:55 AM CDT Normal
Monett, MO 62.1 °F 47 °F 58% ESE  at  7.0 mph 0.00 in / hr 1306 ft 2:57 AM CDT Normal

Show More Stations Show Fewer Stations

What do you think?

We're not finished. Please let us know what you like, what you don't like, and what you are still missing.